Time;durP1;ratioP1;P1;durP2;ratioP2;P2;SDS_P1;SDS_P2;PMS_P1;PMS_P2;Temp;Humidity;BMP_temperature;BMP_pressure;BME280_temperature;BME280_humidity;BME280_pressure;Samples;Min_cycle;Max_cycle;Signal;HPM_P1;HPM_P2
2021/12/13 00:02:44;;;;;;;1727.20;767.88;;;;;;;;;;4984281;28;20026;-81
2021/12/13 00:05:14;;;;;;;1297.30;122.93;;;;;;;;;;5032878;28;20041;-80
2021/12/13 00:07:41;;;;;;;1801.93;780.75;;;;;;;;;;5017508;28;20029;-80
2021/12/13 00:10:19;;;;;;;1445.95;138.15;;;;;;;;;;5014044;28;20046;-81
2021/12/13 00:12:49;;;;;;;1999.90;999.90;;;;;;;;;;4980943;28;20046;-81
2021/12/13 00:15:17;;;;;;;1999.90;999.90;;;;;;;;;;4995648;28;20037;-81
2021/12/13 00:17:50;;;;;;;1311.05;531.25;;;;;;;;;;4997657;28;20484;-81
2021/12/13 00:20:30;;;;;;;1637.30;758.17;;;;;;;;;;5000994;28;20045;-81
2021/12/13 00:22:59;;;;;;;1766.15;792.80;;;;;;;;;;4998376;28;20029;-80
2021/12/13 00:25:26;;;;;;;1271.95;167.20;;;;;;;;;;4994505;28;20083;-80
2021/12/13 00:28:01;;;;;;;1999.90;999.90;;;;;;;;;;5016236;28;20108;-80
2021/12/13 00:30:26;;;;;;;1999.90;999.90;;;;;;;;;;5000166;28;20077;-80
2021/12/13 00:33:26;;;;;;;1999.90;999.90;;;;;;;;;;5016344;28;20068;-80
2021/12/13 00:35:57;;;;;;;982.53;73.00;;;;;;;;;;5007590;28;20049;-80
2021/12/13 00:38:24;;;;;;;1301.32;521.90;;;;;;;;;;4980077;28;20030;-80
2021/12/13 00:40:54;;;;;;;1438.95;559.95;;;;;;;;;;4994566;28;20040;-81
2021/12/13 00:43:34;;;;;;;1389.53;522.25;;;;;;;;;;4980108;28;20030;-80
2021/12/13 00:46:01;;;;;;;1626.32;759.40;;;;;;;;;;4964351;28;20037;-80
2021/12/13 00:48:31;;;;;;;792.60;86.85;;;;;;;;;;4990948;28;20034;-80
2021/12/13 00:51:29;;;;;;;1471.15;135.50;;;;;;;;;;4983117;28;20029;-80
2021/12/13 00:53:56;;;;;;;1362.13;557.33;;;;;;;;;;5013883;28;20466;-80
2021/12/13 00:56:50;;;;;;;1838.55;778.17;;;;;;;;;;4998287;28;20033;-80
2021/12/13 00:59:34;;;;;;;1337.90;558.22;;;;;;;;;;4996176;28;20026;-81
2021/12/13 01:02:02;;;;;;;1331.38;520.60;;;;;;;;;;4985176;28;20061;-80
2021/12/13 01:05:04;;;;;;;1999.90;999.90;;;;;;;;;;4998825;28;20025;-81
2021/12/13 01:07:32;;;;;;;1999.90;999.90;;;;;;;;;;5017683;28;20041;-81
2021/12/13 01:10:29;;;;;;;1999.90;999.90;;;;;;;;;;5031442;28;20071;-80
2021/12/13 01:12:55;;;;;;;1746.95;772.75;;;;;;;;;;5031867;28;20034;-80
2021/12/13 01:15:39;;;;;;;785.67;69.50;;;;;;;;;;5000086;28;20087;-81
2021/12/13 01:18:28;;;;;;;1999.90;999.90;;;;;;;;;;4998436;28;20034;-80
2021/12/13 01:21:16;;;;;;;1009.35;118.88;;;;;;;;;;4998156;28;20140;-80
2021/12/13 01:23:52;;;;;;;1999.90;999.90;;;;;;;;;;4984001;28;20502;-81
2021/12/13 01:26:34;;;;;;;1734.80;561.30;;;;;;;;;;4995707;28;20068;-80
2021/12/13 01:29:02;;;;;;;;;;;;;;;;;;4998490;28;20492;-80
2021/12/13 01:31:32;;;;;;;1999.90;999.90;;;;;;;;;;5012240;28;19913;-80
2021/12/13 01:33:58;;;;;;;1687.70;776.55;;;;;;;;;;4999452;28;20053;-81
2021/12/13 01:36:29;;;;;;;1048.80;93.70;;;;;;;;;;5014957;28;20066;-80
2021/12/13 01:38:58;;;;;;;1999.90;999.90;;;;;;;;;;4968764;28;20126;-80
2021/12/13 01:41:35;;;;;;;1999.90;999.90;;;;;;;;;;4995193;28;20095;-81
2021/12/13 01:44:08;;;;;;;1999.90;999.90;;;;;;;;;;5012035;28;20028;-81
2021/12/13 01:46:39;;;;;;;1999.90;999.90;;;;;;;;;;4988321;28;20033;-81
2021/12/13 01:49:05;;;;;;;1730.60;774.35;;;;;;;;;;4999037;28;20025;-81
2021/12/13 01:51:33;;;;;;;1999.90;999.90;;;;;;;;;;4981888;28;20025;-80
2021/12/13 01:54:13;;;;;;;1999.90;999.90;;;;;;;;;;5015207;28;20368;-80
2021/12/13 01:56:58;;;;;;;1999.90;999.90;;;;;;;;;;4999678;28;20030;-80
2021/12/13 02:02:01;;;;;;;1999.90;999.90;;;;;;;;;;4995714;28;20549;-80
2021/12/13 02:04:27;;;;;;;1999.90;999.90;;;;;;;;;;4995545;28;20034;-80
2021/12/13 02:06:58;;;;;;;1745.72;766.78;;;;;;;;;;4998043;28;20052;-81
2021/12/13 02:09:25;;;;;;;1999.90;999.90;;;;;;;;;;5014801;28;20110;-81
2021/12/13 02:11:54;;;;;;;1999.90;999.90;;;;;;;;;;5011178;28;20083;-81
2021/12/13 02:14:21;;;;;;;1999.90;999.90;;;;;;;;;;4985024;28;20033;-80
2021/12/13 02:17:01;;;;;;;1999.90;999.90;;;;;;;;;;4982533;28;20041;-80
2021/12/13 02:19:44;;;;;;;1768.32;788.17;;;;;;;;;;5001194;28;20037;-80
2021/12/13 02:22:23;;;;;;;;;;;;;;;;;;4999689;28;20121;-81
2021/12/13 02:24:50;;;;;;;1999.90;999.90;;;;;;;;;;5013857;28;20389;-81
2021/12/13 02:27:19;;;;;;;1999.90;999.90;;;;;;;;;;5014608;28;20491;-80
2021/12/13 02:29:45;;;;;;;1999.90;999.90;;;;;;;;;;4998312;28;20029;-81
2021/12/13 02:32:10;;;;;;;1999.90;999.90;;;;;;;;;;5013618;28;20033;-80
2021/12/13 02:34:37;;;;;;;1667.93;760.53;;;;;;;;;;5014841;28;20084;-80
2021/12/13 02:37:03;;;;;;;1999.90;999.90;;;;;;;;;;4997845;28;20033;-80
2021/12/13 02:39:31;;;;;;;1999.90;999.90;;;;;;;;;;4981789;28;20033;-80
2021/12/13 02:41:57;;;;;;;1999.90;999.90;;;;;;;;;;4998165;28;20034;-80
2021/12/13 02:44:40;;;;;;;1999.90;999.90;;;;;;;;;;4997479;28;20132;-80
2021/12/13 02:47:19;;;;;;;1999.90;999.90;;;;;;;;;;4982404;28;20041;-80
2021/12/13 02:49:45;;;;;;;1600.43;763.95;;;;;;;;;;4989954;28;20472;-80
2021/12/13 02:52:12;;;;;;;1383.13;539.17;;;;;;;;;;4978273;28;20112;-80
2021/12/13 02:54:44;;;;;;;1999.90;999.90;;;;;;;;;;5007415;28;20034;-80
2021/12/13 02:57:18;;;;;;;1999.90;999.90;;;;;;;;;;4981739;28;20025;-80
2021/12/13 02:59:53;;;;;;;1999.90;999.90;;;;;;;;;;4996385;28;20026;-80
2021/12/13 03:02:21;;;;;;;1625.07;758.35;;;;;;;;;;5014023;28;20034;-81
2021/12/13 03:04:47;;;;;;;1218.25;514.90;;;;;;;;;;4981474;28;20048;-80
2021/12/13 03:07:19;;;;;;;1691.38;768.75;;;;;;;;;;5013485;28;20177;-80
2021/12/13 03:09:45;;;;;;;1999.90;999.90;;;;;;;;;;4982078;28;20029;-80
2021/12/13 03:12:13;;;;;;;1702.00;765.72;;;;;;;;;;4995822;28;20032;-80
2021/12/13 03:14:45;;;;;;;1999.90;999.90;;;;;;;;;;4991932;28;20041;-80
2021/12/13 03:17:25;;;;;;;1999.90;999.90;;;;;;;;;;4978293;28;20021;-80
2021/12/13 03:19:54;;;;;;;1999.90;999.90;;;;;;;;;;4978840;28;20033;-81
2021/12/13 03:22:31;;;;;;;1734.07;769.15;;;;;;;;;;5012702;28;20044;-80
2021/12/13 03:25:08;;;;;;;624.85;53.65;;;;;;;;;;5013639;28;20033;-79
2021/12/13 03:27:36;;;;;;;792.80;51.58;;;;;;;;;;4996954;28;20033;-80
2021/12/13 03:30:12;;;;;;;1999.90;999.90;;;;;;;;;;5029093;28;20037;-80
2021/12/13 03:32:42;;;;;;;1999.90;999.90;;;;;;;;;;5009603;28;20108;-80
2021/12/13 03:35:15;;;;;;;1999.90;999.90;;;;;;;;;;4997448;28;20045;-80
2021/12/13 03:37:41;;;;;;;857.60;273.85;;;;;;;;;;5013166;28;20048;-81
2021/12/13 03:40:17;;;;;;;1638.80;769.67;;;;;;;;;;4997419;28;20827;-80
2021/12/13 03:42:53;;;;;;;1999.90;999.90;;;;;;;;;;4997074;28;20040;-81
2021/12/13 03:45:25;;;;;;;1999.90;999.90;;;;;;;;;;4990996;28;20042;-80
2021/12/13 03:47:52;;;;;;;1999.90;999.90;;;;;;;;;;5027362;28;20017;-80
2021/12/13 03:50:23;;;;;;;1668.85;759.60;;;;;;;;;;4997410;28;20041;-80
2021/12/13 03:52:52;;;;;;;1999.90;999.90;;;;;;;;;;4980999;28;20036;-81
2021/12/13 03:55:18;;;;;;;1635.50;759.90;;;;;;;;;;4981441;28;20037;-80
2021/12/13 03:57:47;;;;;;;1540.47;548.90;;;;;;;;;;4981524;28;20025;-80
2021/12/13 04:00:13;;;;;;;1999.90;999.90;;;;;;;;;;4996909;28;20030;-80
2021/12/13 04:02:39;;;;;;;1999.90;999.90;;;;;;;;;;5009557;28;20040;-80
2021/12/13 04:05:16;;;;;;;1999.90;999.90;;;;;;;;;;4994045;28;20042;-80
2021/12/13 04:07:49;;;;;;;1999.90;999.90;;;;;;;;;;5013762;28;20510;-80
2021/12/13 04:10:23;;;;;;;1999.90;999.90;;;;;;;;;;4977673;28;20408;-80
2021/12/13 04:12:51;;;;;;;1999.90;999.90;;;;;;;;;;5009741;28;20052;-80
2021/12/13 04:15:58;;;;;;;1999.90;999.90;;;;;;;;;;5004780;28;20051;-80
2021/12/13 04:21:16;;;;;;;1999.90;999.90;;;;;;;;;;5009043;28;20384;-80
2021/12/13 04:23:41;;;;;;;1603.10;756.88;;;;;;;;;;4981122;28;20041;-80
2021/12/13 04:26:09;;;;;;;1099.72;287.45;;;;;;;;;;5016736;28;20480;-80
2021/12/13 04:28:46;;;;;;;1999.90;999.90;;;;;;;;;;5017241;28;20361;-80
2021/12/13 04:31:17;;;;;;;1222.28;516.40;;;;;;;;;;5017574;28;20030;-80
2021/12/13 04:33:45;;;;;;;1691.22;764.55;;;;;;;;;;5001047;28;20084;-80
2021/12/13 04:36:14;;;;;;;1999.90;999.90;;;;;;;;;;4984247;28;20033;-80
2021/12/13 04:38:51;;;;;;;1204.38;513.13;;;;;;;;;;5016562;28;20030;-80
2021/12/13 04:41:50;;;;;;;1999.90;999.90;;;;;;;;;;4999755;28;20049;-80
2021/12/13 04:44:50;;;;;;;1626.47;758.72;;;;;;;;;;5006184;28;20041;-80
2021/12/13 04:47:26;;;;;;;1999.90;999.90;;;;;;;;;;4996891;28;20030;-80
2021/12/13 04:50:02;;;;;;;1999.90;999.90;;;;;;;;;;4998501;28;20041;-80
2021/12/13 04:52:27;;;;;;;1999.90;999.90;;;;;;;;;;5017656;28;20048;-81
2021/12/13 04:54:54;;;;;;;1588.70;755.42;;;;;;;;;;4983292;28;20025;-81
2021/12/13 04:57:19;;;;;;;1999.90;999.90;;;;;;;;;;4983465;28;20091;-81
2021/12/13 05:00:05;;;;;;;1647.50;758.72;;;;;;;;;;4999197;28;20025;-80
2021/12/13 05:02:31;;;;;;;1999.90;999.90;;;;;;;;;;4998813;28;20485;-81
2021/12/13 05:04:58;;;;;;;1999.90;999.90;;;;;;;;;;4999927;28;20073;-80
2021/12/13 05:07:24;;;;;;;1999.90;999.90;;;;;;;;;;4983898;28;20029;-81
2021/12/13 05:09:50;;;;;;;1588.63;756.35;;;;;;;;;;5000311;28;20040;-80
2021/12/13 05:12:17;;;;;;;912.95;128.20;;;;;;;;;;4982979;28;20561;-81
2021/12/13 05:14:50;;;;;;;1999.90;999.90;;;;;;;;;;4998642;28;20033;-80
2021/12/13 05:17:23;;;;;;;1999.90;999.90;;;;;;;;;;5014383;28;20043;-80
2021/12/13 05:20:17;;;;;;;1999.90;999.90;;;;;;;;;;4996872;28;20042;-80
2021/12/13 05:22:55;;;;;;;1999.90;999.90;;;;;;;;;;5012518;28;20030;-81
2021/12/13 05:25:25;;;;;;;1999.90;999.90;;;;;;;;;;4999636;28;20033;-80
2021/12/13 05:28:00;;;;;;;1558.70;754.17;;;;;;;;;;5000100;28;20029;-81
2021/12/13 05:30:26;;;;;;;1999.90;999.90;;;;;;;;;;4999316;28;20415;-81
2021/12/13 05:32:57;;;;;;;1999.90;999.90;;;;;;;;;;4979802;28;20033;-81
2021/12/13 05:35:45;;;;;;;1166.73;362.23;;;;;;;;;;4997543;28;20550;-81
2021/12/13 05:38:33;;;;;;;1999.90;999.90;;;;;;;;;;5028215;28;20037;-81
2021/12/13 05:41:03;;;;;;;1999.90;999.90;;;;;;;;;;4999761;28;20037;-81
2021/12/13 05:43:41;;;;;;;1999.90;999.90;;;;;;;;;;4999414;28;20045;-81
2021/12/13 05:46:08;;;;;;;1651.13;765.58;;;;;;;;;;4999513;28;20034;-81
2021/12/13 05:48:33;;;;;;;1674.13;765.67;;;;;;;;;;5031947;28;20380;-81
2021/12/13 05:50:59;;;;;;;1999.90;999.90;;;;;;;;;;5031406;28;20040;-81
2021/12/13 05:53:30;;;;;;;1999.90;999.90;;;;;;;;;;5014873;28;20033;-81
2021/12/13 05:56:13;;;;;;;1999.90;999.90;;;;;;;;;;4981938;28;20034;-81
2021/12/13 05:58:47;;;;;;;1999.90;999.90;;;;;;;;;;4983758;28;20037;-80
2021/12/13 06:01:25;;;;;;;1999.90;999.90;;;;;;;;;;4998839;28;20037;-81
2021/12/13 06:03:55;;;;;;;1590.30;755.45;;;;;;;;;;4999031;28;20463;-82
2021/12/13 06:06:30;;;;;;;1999.90;999.90;;;;;;;;;;4999296;28;20109;-81
2021/12/13 06:08:56;;;;;;;1999.90;999.90;;;;;;;;;;4999196;28;20475;-81
2021/12/13 06:11:34;;;;;;;1999.90;999.90;;;;;;;;;;5015029;28;20065;-81
2021/12/13 06:14:06;;;;;;;1999.90;999.90;;;;;;;;;;4996748;28;20392;-82
2021/12/13 06:16:39;;;;;;;1999.90;999.90;;;;;;;;;;4984375;28;20175;-79
2021/12/13 06:19:28;;;;;;;1187.72;513.92;;;;;;;;;;4978556;28;20104;-80
2021/12/13 06:22:02;;;;;;;1999.90;999.90;;;;;;;;;;4988318;28;20108;-80
2021/12/13 06:24:40;;;;;;;1999.90;999.90;;;;;;;;;;5011333;28;20046;-80
2021/12/13 06:27:19;;;;;;;1227.30;516.25;;;;;;;;;;4983465;28;20017;-80
2021/12/13 06:29:47;;;;;;;1999.90;999.90;;;;;;;;;;5014359;28;20042;-80
2021/12/13 06:32:43;;;;;;;1999.90;999.90;;;;;;;;;;5013835;28;20091;-80
2021/12/13 06:35:27;;;;;;;1999.90;999.90;;;;;;;;;;4998535;28;20069;-80
2021/12/13 06:37:53;;;;;;;1075.90;506.40;;;;;;;;;;5039919;28;20064;-80
2021/12/13 06:40:27;;;;;;;1670.70;760.13;;;;;;;;;;4997806;28;20064;-79
2021/12/13 06:42:57;;;;;;;1999.90;999.90;;;;;;;;;;4999223;28;20134;-80
2021/12/13 06:45:29;;;;;;;1999.90;999.90;;;;;;;;;;4981388;28;20479;-80
2021/12/13 06:47:56;;;;;;;1205.32;514.13;;;;;;;;;;4995175;28;20030;-80
2021/12/13 06:50:25;;;;;;;1999.90;999.90;;;;;;;;;;5014444;28;20044;-79
2021/12/13 06:52:51;;;;;;;1999.90;999.90;;;;;;;;;;4998288;28;20490;-79
2021/12/13 06:55:18;;;;;;;1632.85;758.13;;;;;;;;;;4997700;28;20029;-80
2021/12/13 06:57:48;;;;;;;1999.90;999.90;;;;;;;;;;4997804;28;20485;-83
2021/12/13 07:00:19;;;;;;;1682.60;766.65;;;;;;;;;;5013826;28;20083;-82
2021/12/13 07:03:10;;;;;;;1999.90;999.90;;;;;;;;;;5029576;28;20124;-81
2021/12/13 07:05:46;;;;;;;1611.82;756.65;;;;;;;;;;4983292;28;20116;-81
2021/12/13 07:08:27;;;;;;;1999.90;999.90;;;;;;;;;;5013440;28;20040;-80
2021/12/13 07:10:52;;;;;;;1999.90;999.90;;;;;;;;;;5015199;28;20061;-81
2021/12/13 07:13:24;;;;;;;1999.90;999.90;;;;;;;;;;5012488;28;20083;-81
2021/12/13 07:15:55;;;;;;;1999.90;999.90;;;;;;;;;;5002025;28;20117;-81
2021/12/13 07:18:29;;;;;;;1999.90;999.90;;;;;;;;;;4994429;28;20506;-81
2021/12/13 07:21:06;;;;;;;1999.90;999.90;;;;;;;;;;4963010;28;20361;-81
2021/12/13 07:23:52;;;;;;;1999.90;999.90;;;;;;;;;;4997148;28;20034;-82
2021/12/13 07:26:37;;;;;;;1999.90;999.90;;;;;;;;;;4992988;28;20050;-82
2021/12/13 07:29:09;;;;;;;1999.90;999.90;;;;;;;;;;4996441;28;20037;-82
2021/12/13 07:31:34;;;;;;;1999.90;999.90;;;;;;;;;;5009913;28;20021;-82
2021/12/13 07:34:14;;;;;;;1999.90;999.90;;;;;;;;;;4997514;28;20045;-81
2021/12/13 07:36:39;;;;;;;1999.90;999.90;;;;;;;;;;4997264;28;20029;-82
2021/12/13 07:39:11;;;;;;;1999.90;999.90;;;;;;;;;;4997482;28;20120;-81
2021/12/13 07:41:52;;;;;;;1999.90;999.90;;;;;;;;;;4996343;28;20033;-82
2021/12/13 07:44:39;;;;;;;1999.90;999.90;;;;;;;;;;5010432;28;20042;-81
2021/12/13 07:47:20;;;;;;;1533.18;753.10;;;;;;;;;;4969384;28;20492;-82
2021/12/13 07:49:56;;;;;;;1999.90;999.90;;;;;;;;;;4998166;28;20029;-82
2021/12/13 07:52:34;;;;;;;1999.90;999.90;;;;;;;;;;4997560;28;20283;-82
2021/12/13 07:55:20;;;;;;;1999.90;999.90;;;;;;;;;;4977933;28;20034;-81
2021/12/13 07:57:45;;;;;;;1999.90;999.90;;;;;;;;;;4962337;28;20030;-81
2021/12/13 08:00:20;;;;;;;1999.90;999.90;;;;;;;;;;4996319;28;20186;-81
2021/12/13 08:02:59;;;;;;;1999.90;999.90;;;;;;;;;;4985087;28;20079;-82
2021/12/13 08:05:33;;;;;;;1999.90;999.90;;;;;;;;;;4999925;28;20041;-81
2021/12/13 08:08:00;;;;;;;1999.90;999.90;;;;;;;;;;5016936;28;20057;-82
2021/12/13 08:10:30;;;;;;;1139.70;510.25;;;;;;;;;;4989473;28;20026;-82
2021/12/13 08:13:01;;;;;;;1999.90;999.90;;;;;;;;;;4983856;28;20021;-82
2021/12/13 08:15:30;;;;;;;1260.18;514.95;;;;;;;;;;4984672;28;20042;-82
2021/12/13 08:18:05;;;;;;;1999.90;999.90;;;;;;;;;;4984671;28;20049;-82
2021/12/13 08:20:45;;;;;;;1252.95;527.92;;;;;;;;;;5000311;28;20044;-82
2021/12/13 08:23:17;;;;;;;1573.53;756.17;;;;;;;;;;5017021;28;20021;-82
2021/12/13 08:25:43;;;;;;;1999.90;999.90;;;;;;;;;;4984334;28;20037;-83
2021/12/13 08:28:12;;;;;;;1602.25;760.28;;;;;;;;;;4993110;28;20048;-82
2021/12/13 08:30:43;;;;;;;1719.97;763.25;;;;;;;;;;4990533;28;20619;-82
2021/12/13 08:33:16;;;;;;;1999.90;999.90;;;;;;;;;;4999476;28;20064;-81
2021/12/13 08:35:49;;;;;;;;;;;;;;;;;;5015274;28;20036;-82
2021/12/13 08:38:39;;;;;;;1999.90;999.90;;;;;;;;;;5000497;28;19912;-81
2021/12/13 08:41:17;;;;;;;1999.90;999.90;;;;;;;;;;4984996;28;20491;-81
2021/12/13 08:43:51;;;;;;;1225.57;522.13;;;;;;;;;;5013708;28;20124;-81
2021/12/13 08:46:31;;;;;;;1615.28;760.38;;;;;;;;;;4998542;28;20033;-82
2021/12/13 08:48:56;;;;;;;1999.90;999.90;;;;;;;;;;5016327;28;20069;-82
2021/12/13 08:51:23;;;;;;;1767.32;767.35;;;;;;;;;;5016209;28;20502;-83
2021/12/13 08:53:59;;;;;;;1999.90;999.90;;;;;;;;;;4998783;28;20033;-82
2021/12/13 08:56:26;;;;;;;1999.90;999.90;;;;;;;;;;4999391;28;20120;-82
2021/12/13 08:59:03;;;;;;;1999.90;999.90;;;;;;;;;;5014526;28;20029;-82
2021/12/13 09:01:45;;;;;;;1710.28;766.30;;;;;;;;;;4969439;28;20041;-82
2021/12/13 09:04:16;;;;;;;1999.90;999.90;;;;;;;;;;4981558;28;20034;-83
2021/12/13 09:06:42;;;;;;;1613.23;689.50;;;;;;;;;;4980380;28;20038;-82
2021/12/13 09:09:15;;;;;;;1999.90;999.90;;;;;;;;;;4995264;28;20490;-82
2021/12/13 09:11:58;;;;;;;1311.75;522.28;;;;;;;;;;5014843;28;20056;-82
2021/12/13 09:14:36;;;;;;;1999.90;999.90;;;;;;;;;;5009527;28;20030;-82
2021/12/13 09:17:26;;;;;;;1999.90;999.90;;;;;;;;;;5016119;28;20071;-82
2021/12/13 09:20:17;;;;;;;1268.20;525.05;;;;;;;;;;5013871;28;20443;-82
2021/12/13 09:23:04;;;;;;;1999.90;999.90;;;;;;;;;;5001286;28;20025;-82
2021/12/13 09:25:30;;;;;;;1664.13;762.67;;;;;;;;;;4998790;28;20037;-82
2021/12/13 09:28:01;;;;;;;1715.13;766.15;;;;;;;;;;5031531;28;20022;-82
2021/12/13 09:30:35;;;;;;;1999.90;999.90;;;;;;;;;;4983398;28;20036;-82
2021/12/13 09:33:18;;;;;;;1999.90;999.90;;;;;;;;;;4992716;28;20041;-82
2021/12/13 09:36:11;;;;;;;1647.63;758.20;;;;;;;;;;4976215;28;20450;-82
2021/12/13 09:38:51;;;;;;;868.95;83.00;;;;;;;;;;4995243;28;20045;-82
2021/12/13 09:41:22;;;;;;;1999.90;999.90;;;;;;;;;;4999342;28;20035;-82
2021/12/13 09:44:09;;;;;;;1999.90;999.90;;;;;;;;;;5014956;28;20017;-82
2021/12/13 09:46:48;;;;;;;1999.90;999.90;;;;;;;;;;5014960;28;20033;-82
2021/12/13 09:49:55;;;;;;;1739.40;765.83;;;;;;;;;;5031846;28;20416;-82
2021/12/13 09:52:31;;;;;;;1614.82;757.30;;;;;;;;;;5013199;28;20037;-82
2021/12/13 09:55:12;;;;;;;1999.90;999.90;;;;;;;;;;4981655;28;20124;-84
2021/12/13 09:57:49;;;;;;;1999.90;999.90;;;;;;;;;;4977265;28;20406;-83
2021/12/13 10:00:22;;;;;;;1407.72;532.75;;;;;;;;;;5015385;28;20112;-82
2021/12/13 10:02:50;;;;;;;1999.90;999.90;;;;;;;;;;5014744;28;20029;-83
2021/12/13 10:05:18;;;;;;;1999.90;999.90;;;;;;;;;;5015490;28;20041;-83
2021/12/13 10:07:46;;;;;;;1999.90;999.90;;;;;;;;;;4998492;28;20476;-83
2021/12/13 10:10:21;;;;;;;1604.07;551.03;;;;;;;;;;4978735;28;20030;-82
2021/12/13 10:12:55;;;;;;;1999.90;999.90;;;;;;;;;;4993219;28;20026;-82
2021/12/13 10:15:27;;;;;;;1597.95;543.22;;;;;;;;;;4982272;28;20033;-80
2021/12/13 10:17:56;;;;;;;1408.38;542.28;;;;;;;;;;5015044;28;20048;-80
2021/12/13 10:20:29;;;;;;;1722.70;583.83;;;;;;;;;;4996493;28;20570;-80
2021/12/13 10:22:54;;;;;;;1827.80;785.72;;;;;;;;;;4999691;28;20476;-80
2021/12/13 10:25:23;;;;;;;1886.63;588.38;;;;;;;;;;4978665;28;20038;-80
2021/12/13 10:27:49;;;;;;;1999.90;999.90;;;;;;;;;;5011025;28;20030;-78
2021/12/13 10:30:29;;;;;;;1999.90;999.90;;;;;;;;;;4997946;28;20602;-78
2021/12/13 10:32:55;;;;;;;1946.40;825.67;;;;;;;;;;5014657;28;20033;-78
2021/12/13 10:35:23;;;;;;;1662.72;557.85;;;;;;;;;;4997921;28;20518;-78
2021/12/13 10:37:53;;;;;;;1995.57;403.60;;;;;;;;;;5014893;28;20037;-78
2021/12/13 10:40:25;;;;;;;1860.50;578.60;;;;;;;;;;4993157;28;20049;-78
2021/12/13 10:43:00;;;;;;;1999.90;999.90;;;;;;;;;;4997337;28;20072;-78
2021/12/13 10:45:31;;;;;;;1613.05;224.95;;;;;;;;;;4997149;28;20033;-78
2021/12/13 10:47:59;;;;;;;1394.40;164.90;;;;;;;;;;5013759;28;20073;-78
2021/12/13 10:50:36;;;;;;;1999.90;823.83;;;;;;;;;;4995508;28;20057;-77
2021/12/13 10:53:03;;;;;;;1939.25;803.83;;;;;;;;;;5012595;28;20033;-77
2021/12/13 10:55:32;;;;;;;1999.90;999.90;;;;;;;;;;4980804;28;20079;-78
2021/12/13 10:57:57;;;;;;;1533.75;558.40;;;;;;;;;;5012244;28;20488;-78
2021/12/13 11:00:28;;;;;;;1949.07;646.55;;;;;;;;;;5014358;28;20031;-87
2021/12/13 11:03:10;;;;;;;1999.90;265.08;;;;;;;;;;5013321;28;20037;-85
2021/12/13 11:05:35;;;;;;;1999.90;999.90;;;;;;;;;;4986665;28;20128;-83
2021/12/13 11:08:01;;;;;;;1999.90;999.90;;;;;;;;;;4995700;28;20025;-80
2021/12/13 11:10:34;;;;;;;1862.53;792.50;;;;;;;;;;5008935;28;20701;-81
2021/12/13 11:13:00;;;;;;;1999.90;999.90;;;;;;;;;;4995784;28;20026;-84
2021/12/13 11:15:28;;;;;;;1944.10;253.88;;;;;;;;;;4992885;28;20460;-82
2021/12/13 11:17:54;;;;;;;1999.90;999.90;;;;;;;;;;4994705;28;20045;-83
2021/12/13 11:20:24;;;;;;;1999.90;331.15;;;;;;;;;;4995010;28;20034;-81
2021/12/13 11:22:50;;;;;;;1827.22;799.40;;;;;;;;;;4978098;28;20128;-82
2021/12/13 11:25:19;;;;;;;1999.90;822.83;;;;;;;;;;4980981;28;20034;-83
2021/12/13 11:27:45;;;;;;;1999.90;999.90;;;;;;;;;;4978183;28;20104;-82
2021/12/13 11:30:14;;;;;;;1669.60;581.88;;;;;;;;;;4993429;28;20105;-81
2021/12/13 11:32:58;;;;;;;1999.90;999.90;;;;;;;;;;4999835;28;20099;-81
2021/12/13 11:35:51;;;;;;;969.65;82.65;;;;;;;;;;5031675;28;20045;-81
2021/12/13 11:38:26;;;;;;;1802.32;214.77;;;;;;;;;;5031384;28;20034;-80
2021/12/13 11:41:07;;;;;;;1858.45;606.13;;;;;;;;;;4998408;28;20029;-81
2021/12/13 11:44:13;;;;;;;1999.90;999.90;;;;;;;;;;4998312;28;20065;-81
2021/12/13 11:46:45;;;;;;;1294.57;127.07;;;;;;;;;;5014393;28;20022;-81
2021/12/13 11:49:36;;;;;;;1644.70;551.13;;;;;;;;;;4998286;28;20030;-81
2021/12/13 11:52:11;;;;;;;1131.07;121.13;;;;;;;;;;5014391;28;20053;-81
2021/12/13 11:55:03;;;;;;;1389.60;176.35;;;;;;;;;;5014250;28;20029;-81
2021/12/13 11:58:06;;;;;;;1688.90;551.78;;;;;;;;;;4998943;28;20030;-81
2021/12/13 12:00:34;;;;;;;;;;;;;;;;;;5014179;28;20088;-81
2021/12/13 12:03:51;;;;;;;1430.30;540.47;;;;;;;;;;5013869;28;19921;-81
2021/12/13 12:07:00;;;;;;;1999.90;999.90;;;;;;;;;;5013358;28;20100;-80
2021/12/13 12:09:47;;;;;;;1587.60;549.58;;;;;;;;;;5000958;28;20481;-81
2021/12/13 12:12:22;;;;;;;1999.90;999.90;;;;;;;;;;5013770;28;20033;-81
2021/12/13 12:14:49;;;;;;;1795.25;798.60;;;;;;;;;;4988733;28;20033;-80
2021/12/13 12:17:15;;;;;;;1700.00;776.97;;;;;;;;;;4984722;28;20029;-81
2021/12/13 12:19:41;;;;;;;1250.85;166.05;;;;;;;;;;5000819;28;20064;-81
2021/12/13 12:22:13;;;;;;;1842.88;798.17;;;;;;;;;;4984797;28;20391;-81
2021/12/13 12:24:40;;;;;;;1999.90;999.90;;;;;;;;;;4985635;28;20030;-80
2021/12/13 12:27:07;;;;;;;1462.40;568.78;;;;;;;;;;5000448;28;20022;-80
2021/12/13 12:29:39;;;;;;;1048.30;99.68;;;;;;;;;;5001293;28;20033;-80
2021/12/13 12:32:11;;;;;;;1599.43;183.00;;;;;;;;;;5000773;28;20036;-81
2021/12/13 12:34:48;;;;;;;1303.90;136.73;;;;;;;;;;5001094;28;20037;-80
2021/12/13 12:37:30;;;;;;;1552.53;541.78;;;;;;;;;;5000673;28;20453;-81
2021/12/13 12:40:08;;;;;;;1548.22;155.13;;;;;;;;;;5017067;28;20029;-80
2021/12/13 12:42:44;;;;;;;1680.90;762.85;;;;;;;;;;5016284;28;20034;-80
2021/12/13 12:45:17;;;;;;;1999.90;999.90;;;;;;;;;;5000299;28;20559;-80
2021/12/13 12:48:03;;;;;;;1412.78;203.80;;;;;;;;;;4984311;28;20132;-80
2021/12/13 12:50:38;;;;;;;1999.90;999.90;;;;;;;;;;5000779;28;20365;-80
2021/12/13 12:53:15;;;;;;;977.60;132.73;;;;;;;;;;5000335;28;20033;-80
2021/12/13 12:55:48;;;;;;;1949.68;795.70;;;;;;;;;;4984079;28;20025;-80
2021/12/13 12:58:28;;;;;;;1981.10;798.10;;;;;;;;;;5000318;28;20021;-80
2021/12/13 13:00:55;;;;;;;1493.18;536.60;;;;;;;;;;5016381;28;20075;-80
2021/12/13 13:03:29;;;;;;;1348.65;307.40;;;;;;;;;;4982947;28;20492;-81
2021/12/13 13:06:05;;;;;;;1377.85;529.22;;;;;;;;;;5000889;28;20026;-81
2021/12/13 13:08:31;;;;;;;1648.30;762.33;;;;;;;;;;5000269;28;20464;-80
2021/12/13 13:13:42;;;;;;;1999.90;999.90;;;;;;;;;;5018074;28;20072;-80
2021/12/13 13:16:08;;;;;;;1302.60;326.08;;;;;;;;;;5015961;28;20029;-80
2021/12/13 13:18:33;;;;;;;1999.90;999.90;;;;;;;;;;4993530;28;20049;-81
2021/12/13 13:21:02;;;;;;;1999.90;999.90;;;;;;;;;;4989526;28;20030;-81
2021/12/13 13:23:40;;;;;;;1053.82;294.08;;;;;;;;;;4995068;28;20038;-80
2021/12/13 13:26:05;;;;;;;1407.88;347.90;;;;;;;;;;4995665;28;20022;-80
2021/12/13 13:28:33;;;;;;;1796.63;772.45;;;;;;;;;;4979433;28;20097;-80
2021/12/13 13:31:11;;;;;;;1999.90;999.90;;;;;;;;;;4995335;28;20112;-80
2021/12/13 13:33:37;;;;;;;1815.40;770.75;;;;;;;;;;5022539;28;20099;-80
2021/12/13 13:36:04;;;;;;;1755.20;779.78;;;;;;;;;;4981765;28;20026;-81
2021/12/13 13:38:30;;;;;;;1999.90;999.90;;;;;;;;;;4990778;28;20033;-80
2021/12/13 13:40:55;;;;;;;1767.22;786.83;;;;;;;;;;4979784;28;20068;-80
2021/12/13 13:43:20;;;;;;;1999.90;999.90;;;;;;;;;;4982355;28;20029;-80
2021/12/13 13:45:52;;;;;;;1999.90;999.90;;;;;;;;;;5015462;28;20029;-80
2021/12/13 13:48:32;;;;;;;1999.90;999.90;;;;;;;;;;5015476;28;20068;-80
2021/12/13 13:51:08;;;;;;;1999.90;999.90;;;;;;;;;;4998311;28;20065;-80
2021/12/13 13:53:35;;;;;;;1999.90;999.90;;;;;;;;;;4982509;28;20029;-80
2021/12/13 13:56:12;;;;;;;1557.15;570.38;;;;;;;;;;4998146;28;20061;-80
2021/12/13 13:58:49;;;;;;;1727.40;764.28;;;;;;;;;;4998632;28;20033;-80
2021/12/13 14:01:40;;;;;;;1075.25;79.70;;;;;;;;;;4981522;28;20037;-80
2021/12/13 14:04:17;;;;;;;1999.90;999.90;;;;;;;;;;5001074;28;20084;-80
2021/12/13 14:06:43;;;;;;;489.55;47.05;;;;;;;;;;5015233;28;20038;-80
2021/12/13 14:09:16;;;;;;;1670.78;766.67;;;;;;;;;;4998762;28;20036;-80
2021/12/13 14:12:03;;;;;;;884.38;66.72;;;;;;;;;;4982056;28;20087;-81
2021/12/13 14:14:49;;;;;;;1484.72;530.17;;;;;;;;;;5001893;28;20021;-80
2021/12/13 14:17:15;;;;;;;1404.25;226.60;;;;;;;;;;4999136;28;20026;-80
2021/12/13 14:19:47;;;;;;;1442.72;560.15;;;;;;;;;;4998546;28;20550;-80
2021/12/13 14:22:14;;;;;;;1999.90;999.90;;;;;;;;;;4997616;28;20087;-80
2021/12/13 14:24:45;;;;;;;1999.90;999.90;;;;;;;;;;5012800;28;20034;-80
2021/12/13 14:27:26;;;;;;;1999.90;999.90;;;;;;;;;;5002906;28;20087;-81
2021/12/13 14:30:10;;;;;;;1723.00;770.65;;;;;;;;;;4980688;28;20032;-80
2021/12/13 14:32:36;;;;;;;1999.90;999.90;;;;;;;;;;4983971;28;20037;-81